sensor_id;sensor_type;location;lat;lon;timestamp;pressure;altitude;pressure_sealevel;temperature;humidity
66627;BME280;53498;50.422;14.912;2023-10-08T00:00:45;98912.53;;;16.73;86.34
66627;BME280;53498;50.422;14.912;2023-10-08T00:03:39;98903.78;;;16.74;85.91
66627;BME280;53498;50.422;14.912;2023-10-08T00:06:06;98905.56;;;16.72;86.20
66627;BME280;53498;50.422;14.912;2023-10-08T00:08:35;98900.31;;;16.72;86.02
66627;BME280;53498;50.422;14.912;2023-10-08T00:11:00;98890.72;;;16.71;86.42
66627;BME280;53498;50.422;14.912;2023-10-08T00:13:33;98892.41;;;16.74;86.37
66627;BME280;53498;50.422;14.912;2023-10-08T00:16:11;98888.97;;;16.72;86.68
66627;BME280;53498;50.422;14.912;2023-10-08T00:18:38;98888.03;;;16.74;86.19
66627;BME280;53498;50.422;14.912;2023-10-08T00:21:06;98891.44;;;16.78;85.74
66627;BME280;53498;50.422;14.912;2023-10-08T00:23:38;98889.59;;;16.81;86.04
66627;BME280;53498;50.422;14.912;2023-10-08T00:26:23;98885.25;;;16.80;85.63
66627;BME280;53498;50.422;14.912;2023-10-08T00:29:02;98882.75;;;16.76;86.84
66627;BME280;53498;50.422;14.912;2023-10-08T00:31:47;98883.56;;;16.78;85.49
66627;BME280;53498;50.422;14.912;2023-10-08T00:34:16;98881.72;;;16.81;84.76
66627;BME280;53498;50.422;14.912;2023-10-08T00:36:44;98879.84;;;16.85;86.34
66627;BME280;53498;50.422;14.912;2023-10-08T00:39:12;98879.00;;;16.84;84.67
66627;BME280;53498;50.422;14.912;2023-10-08T00:41:48;98870.28;;;16.82;85.60
66627;BME280;53498;50.422;14.912;2023-10-08T00:44:15;98859.78;;;16.82;85.34
66627;BME280;53498;50.422;14.912;2023-10-08T00:46:47;98862.28;;;16.87;84.70
66627;BME280;53498;50.422;14.912;2023-10-08T00:49:15;98862.31;;;16.85;85.39
66627;BME280;53498;50.422;14.912;2023-10-08T00:51:54;98857.03;;;16.87;86.31
66627;BME280;53498;50.422;14.912;2023-10-08T00:54:28;98854.34;;;16.88;85.26
66627;BME280;53498;50.422;14.912;2023-10-08T00:56:59;98856.09;;;16.90;84.63
66627;BME280;53498;50.422;14.912;2023-10-08T00:59:31;98850.75;;;16.93;85.07
66627;BME280;53498;50.422;14.912;2023-10-08T01:02:04;98848.97;;;16.93;85.65
66627;BME280;53498;50.422;14.912;2023-10-08T01:04:34;98845.41;;;16.96;84.86
66627;BME280;53498;50.422;14.912;2023-10-08T01:07:02;98850.56;;;16.99;84.65
66627;BME280;53498;50.422;14.912;2023-10-08T01:09:45;98839.69;;;17.11;84.21
66627;BME280;53498;50.422;14.912;2023-10-08T01:14:44;98835.38;;;17.08;84.32
66627;BME280;53498;50.422;14.912;2023-10-08T01:17:12;98829.19;;;17.11;84.33
66627;BME280;53498;50.422;14.912;2023-10-08T01:19:43;98830.03;;;17.11;84.45
66627;BME280;53498;50.422;14.912;2023-10-08T01:22:11;98828.19;;;17.15;83.76
66627;BME280;53498;50.422;14.912;2023-10-08T01:24:48;98833.44;;;17.15;84.22
66627;BME280;53498;50.422;14.912;2023-10-08T01:27:18;98830.72;;;17.18;84.31
66627;BME280;53498;50.422;14.912;2023-10-08T01:29:52;98844.06;;;17.10;85.53
66627;BME280;53498;50.422;14.912;2023-10-08T01:32:19;98831.69;;;17.14;84.47
66627;BME280;53498;50.422;14.912;2023-10-08T01:34:46;98828.19;;;17.15;84.27
66627;BME280;53498;50.422;14.912;2023-10-08T01:37:15;98825.53;;;17.15;83.87
66627;BME280;53498;50.422;14.912;2023-10-08T01:39:48;98829.97;;;17.13;84.44
66627;BME280;53498;50.422;14.912;2023-10-08T01:42:18;98831.56;;;17.19;84.18
66627;BME280;53498;50.422;14.912;2023-10-08T01:44:47;98827.22;;;17.18;84.37
66627;BME280;53498;50.422;14.912;2023-10-08T01:47:19;98832.50;;;17.16;84.62
66627;BME280;53498;50.422;14.912;2023-10-08T01:49:45;98834.53;;;17.08;85.62
66627;BME280;53498;50.422;14.912;2023-10-08T01:52:14;98832.00;;;17.05;85.63
66627;BME280;53498;50.422;14.912;2023-10-08T01:54:44;98830.91;;;17.12;85.17
66627;BME280;53498;50.422;14.912;2023-10-08T01:57:10;98830.72;;;17.18;85.42
66627;BME280;53498;50.422;14.912;2023-10-08T01:59:38;98826.41;;;17.16;84.56
66627;BME280;53498;50.422;14.912;2023-10-08T02:02:04;98824.69;;;17.15;83.98
66627;BME280;53498;50.422;14.912;2023-10-08T02:04:33;98831.66;;;17.16;85.09
66627;BME280;53498;50.422;14.912;2023-10-08T02:07:01;98835.88;;;17.21;84.31
66627;BME280;53498;50.422;14.912;2023-10-08T02:09:30;98828.97;;;17.17;85.43
66627;BME280;53498;50.422;14.912;2023-10-08T02:11:55;98830.03;;;17.11;86.44
66627;BME280;53498;50.422;14.912;2023-10-08T02:14:22;98825.53;;;17.15;86.59
66627;BME280;53498;50.422;14.912;2023-10-08T02:16:49;98840.22;;;17.22;84.87
66627;BME280;53498;50.422;14.912;2023-10-08T02:19:17;98830.63;;;17.21;88.48
66627;BME280;53498;50.422;14.912;2023-10-08T02:21:55;98834.03;;;17.23;85.05
66627;BME280;53498;50.422;14.912;2023-10-08T02:24:22;98834.13;;;17.20;86.85
66627;BME280;53498;50.422;14.912;2023-10-08T02:26:54;98841.22;;;17.18;85.35
66627;BME280;53498;50.422;14.912;2023-10-08T02:29:23;98840.31;;;17.19;85.37
66627;BME280;53498;50.422;14.912;2023-10-08T02:31:50;98837.69;;;17.19;89.09
66627;BME280;53498;50.422;14.912;2023-10-08T02:34:15;98839.56;;;17.14;86.34
66627;BME280;53498;50.422;14.912;2023-10-08T02:36:41;98838.59;;;17.18;86.47
66627;BME280;53498;50.422;14.912;2023-10-08T02:39:07;98839.69;;;17.11;91.97
66627;BME280;53498;50.422;14.912;2023-10-08T02:41:42;98837.94;;;17.11;92.17
66627;BME280;53498;50.422;14.912;2023-10-08T02:44:12;98833.53;;;17.12;87.91
66627;BME280;53498;50.422;14.912;2023-10-08T02:46:45;98842.25;;;17.13;87.68
66627;BME280;53498;50.422;14.912;2023-10-08T02:49:15;98837.06;;;17.11;88.45
66627;BME280;53498;50.422;14.912;2023-10-08T02:51:49;98836.16;;;17.12;89.25
66627;BME280;53498;50.422;14.912;2023-10-08T02:54:18;98838.63;;;17.17;88.84
66627;BME280;53498;50.422;14.912;2023-10-08T02:56:45;98834.31;;;17.14;89.05
66627;BME280;53498;50.422;14.912;2023-10-08T02:59:12;98842.25;;;17.13;90.18
66627;BME280;53498;50.422;14.912;2023-10-08T03:01:38;98846.47;;;17.18;90.35
66627;BME280;53498;50.422;14.912;2023-10-08T03:04:06;98834.31;;;17.14;92.04
66627;BME280;53498;50.422;14.912;2023-10-08T03:06:41;98837.69;;;17.19;91.90
66627;BME280;53498;50.422;14.912;2023-10-08T03:09:06;98835.06;;;17.19;93.77
66627;BME280;53498;50.422;14.912;2023-10-08T03:11:35;98846.31;;;17.23;94.30
66627;BME280;53498;50.422;14.912;2023-10-08T03:14:02;98851.59;;;17.23;95.47
66627;BME280;53498;50.422;14.912;2023-10-08T03:16:28;98852.63;;;17.17;95.88
66627;BME280;53498;50.422;14.912;2023-10-08T03:18:54;98857.13;;;17.14;96.90
66627;BME280;53498;50.422;14.912;2023-10-08T03:21:22;98861.59;;;17.11;98.18
66627;BME280;53498;50.422;14.912;2023-10-08T03:24:08;98862.53;;;17.09;97.63
66627;BME280;53498;50.422;14.912;2023-10-08T03:26:49;98863.63;;;17.02;99.32
66627;BME280;53498;50.422;14.912;2023-10-08T03:29:21;98870.69;;;17.00;100.00
66627;BME280;53498;50.422;14.912;2023-10-08T03:31:46;98877.03;;;16.93;100.00
66627;BME280;53498;50.422;14.912;2023-10-08T03:34:13;98886.75;;;16.89;100.00
66627;BME280;53498;50.422;14.912;2023-10-08T03:36:41;98897.44;;;16.83;100.00
66627;BME280;53498;50.422;14.912;2023-10-08T03:39:10;98927.75;;;16.62;100.00
66627;BME280;53498;50.422;14.912;2023-10-08T03:41:39;98929.78;;;15.81;100.00
66627;BME280;53498;50.422;14.912;2023-10-08T03:44:17;98947.91;;;15.11;100.00
66627;BME280;53498;50.422;14.912;2023-10-08T03:46:43;98971.50;;;14.63;100.00
66627;BME280;53498;50.422;14.912;2023-10-08T03:49:12;98979.88;;;14.30;100.00
66627;BME280;53498;50.422;14.912;2023-10-08T03:51:47;98986.41;;;14.03;100.00
66627;BME280;53498;50.422;14.912;2023-10-08T03:54:17;98991.72;;;13.97;100.00
66627;BME280;53498;50.422;14.912;2023-10-08T03:56:45;98988.38;;;13.87;100.00
66627;BME280;53498;50.422;14.912;2023-10-08T03:59:15;98998.28;;;13.65;100.00
66627;BME280;53498;50.422;14.912;2023-10-08T04:02:01;98996.72;;;13.52;100.00
66627;BME280;53498;50.422;14.912;2023-10-08T04:04:39;98985.44;;;13.47;100.00
66627;BME280;53498;50.422;14.912;2023-10-08T04:07:37;98999.50;;;13.37;100.00
66627;BME280;53498;50.422;14.912;2023-10-08T04:10:26;99012.53;;;13.40;100.00
66627;BME280;53498;50.422;14.912;2023-10-08T04:13:04;99034.19;;;13.50;100.00
66627;BME280;53498;50.422;14.912;2023-10-08T04:15:38;99039.41;;;13.51;100.00
66627;BME280;53498;50.422;14.912;2023-10-08T04:18:09;99054.47;;;13.31;100.00
66627;BME280;53498;50.422;14.912;2023-10-08T04:20:35;99066.69;;;13.29;100.00
66627;BME280;53498;50.422;14.912;2023-10-08T04:23:08;99093.72;;;13.25;100.00
66627;BME280;53498;50.422;14.912;2023-10-08T04:25:47;99100.78;;;13.10;100.00
66627;BME280;53498;50.422;14.912;2023-10-08T04:28:18;99105.22;;;13.02;100.00
66627;BME280;53498;50.422;14.912;2023-10-08T04:30:46;99091.47;;;12.83;100.00
66627;BME280;53498;50.422;14.912;2023-10-08T04:33:18;99094.19;;;12.72;100.00
66627;BME280;53498;50.422;14.912;2023-10-08T04:35:45;99083.75;;;12.69;100.00
66627;BME280;53498;50.422;14.912;2023-10-08T04:38:15;99102.22;;;12.43;100.00
66627;BME280;53498;50.422;14.912;2023-10-08T04:40:44;99103.09;;;12.38;100.00
66627;BME280;53498;50.422;14.912;2023-10-08T04:43:23;99104.91;;;12.33;100.00
66627;BME280;53498;50.422;14.912;2023-10-08T04:45:57;99104.91;;;12.30;100.00
66627;BME280;53498;50.422;14.912;2023-10-08T04:48:24;99119.81;;;12.11;100.00
66627;BME280;53498;50.422;14.912;2023-10-08T04:50:51;99125.94;;;11.99;100.00
66627;BME280;53498;50.422;14.912;2023-10-08T04:53:32;99121.63;;;11.98;100.00
66627;BME280;53498;50.422;14.912;2023-10-08T04:56:03;99135.56;;;11.81;100.00
66627;BME280;53498;50.422;14.912;2023-10-08T04:58:32;99140.75;;;11.83;100.00
66627;BME280;53498;50.422;14.912;2023-10-08T05:01:00;99143.38;;;11.81;100.00
66627;BME280;53498;50.422;14.912;2023-10-08T05:03:49;99153.84;;;11.75;100.00
66627;BME280;53498;50.422;14.912;2023-10-08T05:06:34;99163.34;;;11.98;100.00
66627;BME280;53498;50.422;14.912;2023-10-08T05:09:03;99165.97;;;11.75;100.00
66627;BME280;53498;50.422;14.912;2023-10-08T05:11:36;99152.13;;;11.56;100.00
66627;BME280;53498;50.422;14.912;2023-10-08T05:14:17;99165.13;;;11.62;100.00
66627;BME280;53498;50.422;14.912;2023-10-08T05:17:07;99183.38;;;11.59;100.00
66627;BME280;53498;50.422;14.912;2023-10-08T05:19:45;99194.66;;;11.67;100.00
66627;BME280;53498;50.422;14.912;2023-10-08T05:22:23;99195.56;;;11.51;100.00
66627;BME280;53498;50.422;14.912;2023-10-08T05:25:09;99203.41;;;11.37;100.00
66627;BME280;53498;50.422;14.912;2023-10-08T05:27:46;99209.44;;;11.47;100.00
66627;BME280;53498;50.422;14.912;2023-10-08T05:30:19;99225.97;;;11.49;100.00
66627;BME280;53498;50.422;14.912;2023-10-08T05:32:57;99259.84;;;11.41;100.00
66627;BME280;53498;50.422;14.912;2023-10-08T05:35:40;99270.25;;;11.33;100.00
66627;BME280;53498;50.422;14.912;2023-10-08T05:38:15;99266.75;;;11.50;100.00
66627;BME280;53498;50.422;14.912;2023-10-08T05:40:57;99265.06;;;11.41;100.00
66627;BME280;53498;50.422;14.912;2023-10-08T05:46:11;99275.41;;;11.03;100.00
66627;BME280;53498;50.422;14.912;2023-10-08T05:48:50;99291.03;;;10.97;100.00
66627;BME280;53498;50.422;14.912;2023-10-08T05:51:34;99291.91;;;10.99;100.00
66627;BME280;53498;50.422;14.912;2023-10-08T05:54:15;99306.66;;;10.97;100.00
66627;BME280;53498;50.422;14.912;2023-10-08T05:57:06;99298.03;;;11.22;100.00
66627;BME280;53498;50.422;14.912;2023-10-08T06:00:01;99299.69;;;10.86;100.00
66627;BME280;53498;50.422;14.912;2023-10-08T06:02:27;99309.25;;;10.84;100.00
66627;BME280;53498;50.422;14.912;2023-10-08T06:05:00;99323.94;;;10.67;100.00
66627;BME280;53498;50.422;14.912;2023-10-08T06:07:46;99325.66;;;10.68;100.00
66627;BME280;53498;50.422;14.912;2023-10-08T06:10:19;99332.56;;;10.57;100.00
66627;BME280;53498;50.422;14.912;2023-10-08T06:18:21;99335.03;;;10.32;100.00
66627;BME280;53498;50.422;14.912;2023-10-08T06:20:58;99354.97;;;10.33;100.00
66627;BME280;53498;50.422;14.912;2023-10-08T06:23:24;99342.84;;;10.32;100.00
66627;BME280;53498;50.422;14.912;2023-10-08T06:25:54;99352.47;;;10.50;100.00
66627;BME280;53498;50.422;14.912;2023-10-08T06:28:42;99353.25;;;10.37;100.00
66627;BME280;53498;50.422;14.912;2023-10-08T06:31:08;99363.72;;;10.48;100.00
66627;BME280;53498;50.422;14.912;2023-10-08T06:33:50;99388.13;;;10.74;100.00
66627;BME280;53498;50.422;14.912;2023-10-08T06:36:16;99388.88;;;10.47;100.00
66627;BME280;53498;50.422;14.912;2023-10-08T06:38:43;99399.25;;;10.44;100.00
66627;BME280;53498;50.422;14.912;2023-10-08T06:41:11;99403.63;;;10.53;100.00
66627;BME280;53498;50.422;14.912;2023-10-08T06:43:49;99418.31;;;10.46;100.00
66627;BME280;53498;50.422;14.912;2023-10-08T06:46:16;99432.16;;;10.39;100.00
66627;BME280;53498;50.422;14.912;2023-10-08T06:48:45;99434.78;;;10.37;97.21
66627;BME280;53498;50.422;14.912;2023-10-08T06:51:12;99438.22;;;10.39;96.78
66627;BME280;53498;50.422;14.912;2023-10-08T06:53:45;99450.38;;;10.37;95.24
66627;BME280;53498;50.422;14.912;2023-10-08T06:56:16;99451.06;;;10.21;92.99
66627;BME280;53498;50.422;14.912;2023-10-08T06:58:43;99465.09;;;10.35;94.92
66627;BME280;53498;50.422;14.912;2023-10-08T07:01:15;99495.56;;;10.55;97.41
66627;BME280;53498;50.422;14.912;2023-10-08T07:03:47;99499.81;;;10.42;92.67
66627;BME280;53498;50.422;14.912;2023-10-08T07:06:14;99492.78;;;10.29;92.01
66627;BME280;53498;50.422;14.912;2023-10-08T07:08:51;99494.56;;;10.34;93.30
66627;BME280;53498;50.422;14.912;2023-10-08T07:11:21;99503.22;;;10.36;93.55
66627;BME280;53498;50.422;14.912;2023-10-08T07:13:47;99510.34;;;10.65;100.00
66627;BME280;53498;50.422;14.912;2023-10-08T07:16:13;99505.28;;;10.82;98.82
66627;BME280;53498;50.422;14.912;2023-10-08T07:18:43;99518.09;;;10.56;94.76
66627;BME280;53498;50.422;14.912;2023-10-08T07:21:15;99523.16;;;10.36;94.96
66627;BME280;53498;50.422;14.912;2023-10-08T07:23:41;99510.22;;;10.42;99.11
66627;BME280;53498;50.422;14.912;2023-10-08T07:26:25;99523.28;;;10.51;100.00
66627;BME280;53498;50.422;14.912;2023-10-08T07:28:52;99526.75;;;10.52;99.22
66627;BME280;53498;50.422;14.912;2023-10-08T07:31:21;99524.75;;;10.23;97.71
66627;BME280;53498;50.422;14.912;2023-10-08T07:34:04;99546.41;;;10.24;100.00
66627;BME280;53498;50.422;14.912;2023-10-08T07:36:49;99565.69;;;10.41;100.00
66627;BME280;53498;50.422;14.912;2023-10-08T07:39:16;99562.16;;;10.36;100.00
66627;BME280;53498;50.422;14.912;2023-10-08T07:42:02;99547.47;;;10.39;100.00
66627;BME280;53498;50.422;14.912;2023-10-08T07:44:30;99544.09;;;10.51;99.67
66627;BME280;53498;50.422;14.912;2023-10-08T07:46:56;99548.44;;;10.51;100.00
66627;BME280;53498;50.422;14.912;2023-10-08T07:49:22;99563.13;;;10.49;100.00
66627;BME280;53498;50.422;14.912;2023-10-08T07:51:49;99564.88;;;10.47;100.00
66627;BME280;53498;50.422;14.912;2023-10-08T07:54:19;99563.13;;;10.49;99.61
66627;BME280;53498;50.422;14.912;2023-10-08T07:56:47;99578.78;;;10.55;100.00
66627;BME280;53498;50.422;14.912;2023-10-08T07:59:14;99579.75;;;10.64;100.00
66627;BME280;53498;50.422;14.912;2023-10-08T08:01:43;99587.59;;;10.69;100.00
66627;BME280;53498;50.422;14.912;2023-10-08T08:04:12;99589.25;;;10.59;100.00
66627;BME280;53498;50.422;14.912;2023-10-08T08:06:51;99589.31;;;10.65;100.00
66627;BME280;53498;50.422;14.912;2023-10-08T08:09:17;99588.38;;;10.60;100.00
66627;BME280;53498;50.422;14.912;2023-10-08T08:11:48;99591.09;;;10.73;100.00
66627;BME280;53498;50.422;14.912;2023-10-08T08:14:14;99610.34;;;10.99;100.00
66627;BME280;53498;50.422;14.912;2023-10-08T08:16:43;99604.25;;;10.91;100.00
66627;BME280;53498;50.422;14.912;2023-10-08T08:19:22;99608.53;;;10.84;100.00
66627;BME280;53498;50.422;14.912;2023-10-08T08:21:57;99606.66;;;10.68;100.00
66627;BME280;53498;50.422;14.912;2023-10-08T08:24:28;99600.78;;;10.94;100.00
66627;BME280;53498;50.422;14.912;2023-10-08T08:27:00;99602.63;;;11.07;100.00
66627;BME280;53498;50.422;14.912;2023-10-08T08:29:37;99615.41;;;10.76;100.00
66627;BME280;53498;50.422;14.912;2023-10-08T08:32:17;99614.44;;;10.63;100.00
66627;BME280;53498;50.422;14.912;2023-10-08T08:34:47;99617.09;;;10.74;100.00
66627;BME280;53498;50.422;14.912;2023-10-08T08:37:16;99643.19;;;10.80;100.00
66627;BME280;53498;50.422;14.912;2023-10-08T08:39:42;99640.69;;;10.91;100.00
66627;BME280;53498;50.422;14.912;2023-10-08T08:42:08;99645.84;;;10.85;100.00
66627;BME280;53498;50.422;14.912;2023-10-08T08:44:41;99652.78;;;10.84;100.00
66627;BME280;53498;50.422;14.912;2023-10-08T08:47:14;99655.44;;;10.97;100.00
66627;BME280;53498;50.422;14.912;2023-10-08T08:49:50;99665.13;;;11.11;100.00
66627;BME280;53498;50.422;14.912;2023-10-08T08:52:20;99664.28;;;11.14;100.00
66627;BME280;53498;50.422;14.912;2023-10-08T08:54:46;99661.00;;;11.43;100.00
66627;BME280;53498;50.422;14.912;2023-10-08T08:57:12;99665.34;;;11.45;100.00
66627;BME280;53498;50.422;14.912;2023-10-08T08:59:46;99663.69;;;11.56;100.00
66627;BME280;53498;50.422;14.912;2023-10-08T09:02:15;99672.25;;;11.40;100.00
66627;BME280;53498;50.422;14.912;2023-10-08T09:04:43;99676.09;;;11.97;100.00
66627;BME280;53498;50.422;14.912;2023-10-08T09:07:12;99671.38;;;11.40;100.00
66627;BME280;53498;50.422;14.912;2023-10-08T09:09:37;99670.47;;;11.33;100.00
66627;BME280;53498;50.422;14.912;2023-10-08T09:12:06;99682.84;;;11.68;100.00
66627;BME280;53498;50.422;14.912;2023-10-08T09:14:36;99683.84;;;11.87;100.00
66627;BME280;53498;50.422;14.912;2023-10-08T09:17:04;99694.19;;;11.76;100.00
66627;BME280;53498;50.422;14.912;2023-10-08T09:19:35;99695.84;;;11.57;100.00
66627;BME280;53498;50.422;14.912;2023-10-08T09:22:07;99696.75;;;11.71;100.00
66627;BME280;53498;50.422;14.912;2023-10-08T09:24:35;99696.75;;;11.67;100.00
66627;BME280;53498;50.422;14.912;2023-10-08T09:27:11;99700.31;;;11.82;100.00
66627;BME280;53498;50.422;14.912;2023-10-08T09:29:41;99706.31;;;11.66;100.00
66627;BME280;53498;50.422;14.912;2023-10-08T09:32:12;99706.09;;;11.35;100.00
66627;BME280;53498;50.422;14.912;2023-10-08T09:34:39;99695.78;;;11.48;100.00
66627;BME280;53498;50.422;14.912;2023-10-08T09:37:11;99693.94;;;11.36;100.00
66627;BME280;53498;50.422;14.912;2023-10-08T09:39:38;99710.44;;;11.32;100.00
66627;BME280;53498;50.422;14.912;2023-10-08T09:42:05;99718.31;;;11.46;100.00
66627;BME280;53498;50.422;14.912;2023-10-08T09:44:37;99706.50;;;12.00;100.00
66627;BME280;53498;50.422;14.912;2023-10-08T09:47:09;99720.47;;;12.13;100.00
66627;BME280;53498;50.422;14.912;2023-10-08T09:49:56;99717.09;;;12.40;100.00
66627;BME280;53498;50.422;14.912;2023-10-08T09:52:34;99726.59;;;12.19;100.00
66627;BME280;53498;50.422;14.912;2023-10-08T09:55:07;99721.28;;;12.01;100.00
66627;BME280;53498;50.422;14.912;2023-10-08T09:57:36;99724.88;;;12.29;100.00
66627;BME280;53498;50.422;14.912;2023-10-08T10:00:04;99735.38;;;12.46;100.00
66627;BME280;53498;50.422;14.912;2023-10-08T10:02:32;99743.13;;;12.31;100.00
66627;BME280;53498;50.422;14.912;2023-10-08T10:04:59;99738.94;;;12.69;100.00
66627;BME280;53498;50.422;14.912;2023-10-08T10:07:26;99748.34;;;12.27;100.00
66627;BME280;53498;50.422;14.912;2023-10-08T10:09:56;99747.50;;;12.29;100.00
66627;BME280;53498;50.422;14.912;2023-10-08T10:12:26;99744.94;;;12.47;100.00
66627;BME280;53498;50.422;14.912;2023-10-08T10:14:56;99756.28;;;12.63;100.00
66627;BME280;53498;50.422;14.912;2023-10-08T10:17:25;99748.53;;;12.92;100.00
66627;BME280;53498;50.422;14.912;2023-10-08T10:20:09;99741.53;;;12.88;100.00
66627;BME280;53498;50.422;14.912;2023-10-08T10:22:39;99738.03;;;12.60;100.00
66627;BME280;53498;50.422;14.912;2023-10-08T10:25:07;99737.22;;;13.08;100.00
66627;BME280;53498;50.422;14.912;2023-10-08T10:30:21;99738.94;;;12.94;100.00
66627;BME280;53498;50.422;14.912;2023-10-08T10:32:52;99745.03;;;12.87;100.00
66627;BME280;53498;50.422;14.912;2023-10-08T10:35:18;99754.63;;;12.89;99.39
66627;BME280;53498;50.422;14.912;2023-10-08T10:37:46;99749.38;;;12.79;98.02
66627;BME280;53498;50.422;14.912;2023-10-08T10:40:23;99753.59;;;12.32;97.59
66627;BME280;53498;50.422;14.912;2023-10-08T10:43:05;99748.47;;;12.72;100.00
66627;BME280;53498;50.422;14.912;2023-10-08T10:45:32;99755.34;;;12.41;96.89
66627;BME280;53498;50.422;14.912;2023-10-08T10:48:13;99758.88;;;12.52;100.00
66627;BME280;53498;50.422;14.912;2023-10-08T10:50:48;99755.44;;;12.78;100.00
66627;BME280;53498;50.422;14.912;2023-10-08T10:53:17;99761.56;;;12.81;100.00
66627;BME280;53498;50.422;14.912;2023-10-08T10:55:43;99765.94;;;12.99;100.00
66627;BME280;53498;50.422;14.912;2023-10-08T10:58:24;99758.97;;;12.86;97.70
66627;BME280;53498;50.422;14.912;2023-10-08T11:00:50;99760.75;;;13.24;100.00
66627;BME280;53498;50.422;14.912;2023-10-08T11:03:23;99761.63;;;13.13;97.73
66627;BME280;53498;50.422;14.912;2023-10-08T11:05:52;99769.44;;;13.06;96.63
66627;BME280;53498;50.422;14.912;2023-10-08T11:08:21;99759.03;;;13.29;98.95
66627;BME280;53498;50.422;14.912;2023-10-08T11:10:49;99765.97;;;13.20;94.28
66627;BME280;53498;50.422;14.912;2023-10-08T11:13:18;99764.25;;;13.47;97.16
66627;BME280;53498;50.422;14.912;2023-10-08T11:15:50;99759.00;;;13.35;92.04
66627;BME280;53498;50.422;14.912;2023-10-08T11:18:19;99758.97;;;12.95;83.55
66627;BME280;53498;50.422;14.912;2023-10-08T11:20:45;99757.19;;;12.85;93.23
66627;BME280;53498;50.422;14.912;2023-10-08T11:23:33;99751.16;;;13.18;96.55
66627;BME280;53498;50.422;14.912;2023-10-08T11:26:01;99748.56;;;13.33;95.14
66627;BME280;53498;50.422;14.912;2023-10-08T11:28:33;99745.97;;;13.27;91.27
66627;BME280;53498;50.422;14.912;2023-10-08T11:31:01;99737.22;;;13.50;93.54
66627;BME280;53498;50.422;14.912;2023-10-08T11:33:37;99738.94;;;13.66;93.75
66627;BME280;53498;50.422;14.912;2023-10-08T11:36:05;99741.56;;;13.71;91.40
66627;BME280;53498;50.422;14.912;2023-10-08T11:39:09;99745.84;;;14.02;100.00
66627;BME280;53498;50.422;14.912;2023-10-08T11:41:35;99732.75;;;14.02;90.38
66627;BME280;53498;50.422;14.912;2023-10-08T11:44:15;99743.25;;;13.96;87.98
66627;BME280;53498;50.422;14.912;2023-10-08T11:46:45;99739.63;;;14.34;86.42
66627;BME280;53498;50.422;14.912;2023-10-08T11:49:14;99743.91;;;14.49;84.90
66627;BME280;53498;50.422;14.912;2023-10-08T11:51:51;99737.81;;;14.54;82.60
66627;BME280;53498;50.422;14.912;2023-10-08T11:54:17;99735.19;;;14.48;84.20
66627;BME280;53498;50.422;14.912;2023-10-08T11:56:45;99737.81;;;14.48;82.31
66627;BME280;53498;50.422;14.912;2023-10-08T11:59:12;99734.31;;;14.49;82.31
66627;BME280;53498;50.422;14.912;2023-10-08T12:01:39;99735.97;;;14.70;88.17
66627;BME280;53498;50.422;14.912;2023-10-08T12:04:09;99741.28;;;14.50;79.74
66627;BME280;53498;50.422;14.912;2023-10-08T12:06:40;99736.03;;;14.50;77.82
66627;BME280;53498;50.422;14.912;2023-10-08T12:09:15;99733.41;;;14.61;78.42
66627;BME280;53498;50.422;14.912;2023-10-08T12:11:41;99736.09;;;14.35;76.68
66627;BME280;53498;50.422;14.912;2023-10-08T12:14:08;99729.97;;;14.41;85.07
66627;BME280;53498;50.422;14.912;2023-10-08T12:16:34;99738.75;;;14.37;82.82
66627;BME280;53498;50.422;14.912;2023-10-08T12:19:05;99740.50;;;14.28;90.49
66627;BME280;53498;50.422;14.912;2023-10-08T12:21:41;99744.88;;;14.25;79.77
66627;BME280;53498;50.422;14.912;2023-10-08T12:24:07;99742.28;;;14.22;81.35
66627;BME280;53498;50.422;14.912;2023-10-08T12:26:38;99745.81;;;14.04;91.62
66627;BME280;53498;50.422;14.912;2023-10-08T12:29:14;99746.78;;;13.83;76.93
66627;BME280;53498;50.422;14.912;2023-10-08T12:31:40;99749.44;;;13.49;72.90
66627;BME280;53498;50.422;14.912;2023-10-08T12:34:06;99743.34;;;13.35;71.56
66627;BME280;53498;50.422;14.912;2023-10-08T12:36:37;99734.63;;;13.60;73.00
66627;BME280;53498;50.422;14.912;2023-10-08T12:39:03;99732.84;;;13.72;74.90
66627;BME280;53498;50.422;14.912;2023-10-08T12:41:35;99747.66;;;13.71;70.61
66627;BME280;53498;50.422;14.912;2023-10-08T12:44:04;99738.06;;;13.78;73.20
66627;BME280;53498;50.422;14.912;2023-10-08T12:46:33;99740.72;;;13.67;70.10
66627;BME280;53498;50.422;14.912;2023-10-08T12:49:00;99737.25;;;13.45;69.68
66627;BME280;53498;50.422;14.912;2023-10-08T12:51:30;99745.06;;;13.24;70.57
66627;BME280;53498;50.422;14.912;2023-10-08T12:54:02;99743.34;;;13.23;71.08
66627;BME280;53498;50.422;14.912;2023-10-08T12:56:32;99738.09;;;13.23;69.54
66627;BME280;53498;50.422;14.912;2023-10-08T12:59:04;99743.34;;;13.23;71.40
66627;BME280;53498;50.422;14.912;2023-10-08T13:01:31;99736.38;;;13.25;71.72
66627;BME280;53498;50.422;14.912;2023-10-08T13:03:57;99739.84;;;13.25;69.01
66627;BME280;53498;50.422;14.912;2023-10-08T13:06:30;99740.75;;;13.33;67.78
66627;BME280;53498;50.422;14.912;2023-10-08T13:08:57;99742.47;;;13.34;67.54
66627;BME280;53498;50.422;14.912;2023-10-08T13:11:24;99736.38;;;13.40;65.13
66627;BME280;53498;50.422;14.912;2023-10-08T13:13:51;99739.00;;;13.51;63.15
66627;BME280;53498;50.422;14.912;2023-10-08T13:16:18;99746.81;;;13.46;62.11
66627;BME280;53498;50.422;14.912;2023-10-08T13:18:47;99751.19;;;13.33;62.74
66627;BME280;53498;50.422;14.912;2023-10-08T13:21:13;99744.19;;;13.23;63.23